CheckWX is a tool to help pilots better visualize weather data.  It is not intended as a substitute for an official pre-flight weather briefing.

12:29:13 UTC

KANW METAR
Ainsworth Regional Airport
Ainsworth, Nebraska, USA
Current

34 mins ago

KANW 221155Z AUTO 11007KT 2 1/2SM -SN SCT007 BKN017 OVC022 M09/M09 A3013 RMK AO2 60001 70001 T10861092 11086 21095
Observed
Feb-22 @ 11:55 UTC
Wind
  • 110° at 7 KTS
Visibility
2 1/2 SM
Flight Rules
IFR
Conditions
Light Snow
Cloud Levels
  • Scattered at 700' AGL
  • Broken at 1,700' AGL
  • Overcast at 2,200' AGL
Temperature
-9°C / 16°F
Dewpoint
-9°C / 16°F
Humidity
100%
Altimeter
30.13" Hg
Pressure
1020.32 hPa
Previous

54 mins ago

KANW 221135Z AUTO 11006KT 4SM -SN SCT007 OVC021 M09/M10 A3014 RMK AO2 T10901096
Observed
Feb-22 @ 11:35 UTC
Wind
  • 110° at 6 KTS
Visibility
4 SM
Flight Rules
MVFR
Conditions
Light Snow
Cloud Levels
  • Scattered at 700' AGL
  • Overcast at 2,100' AGL
Temperature
-9°C / 16°F
Dewpoint
-10°C / 14°F
Humidity
93%
Altimeter
30.14" Hg
Pressure
1020.62 hPa
Previous

1 hour ago

KANW 221115Z AUTO 11007KT 7SM -SN OVC021 M09/M10 A3014 RMK AO2 T10911097
Observed
Feb-22 @ 11:15 UTC
Wind
  • 110° at 7 KTS
Visibility
7 SM
Flight Rules
MVFR
Conditions
Light Snow
Cloud Levels
  • Overcast at 2,100' AGL
Temperature
-9°C / 16°F
Dewpoint
-10°C / 14°F
Humidity
93%
Altimeter
30.14" Hg
Pressure
1020.62 hPa